sensor_id;sensor_type;location;lat;lon;timestamp;pressure;altitude;pressure_sealevel;temperature;humidity
19086;BME280;9675;51.538;6.728;2023-01-29T00:02:01;102711.41;;;1.26;100.00
19086;BME280;9675;51.538;6.728;2023-01-29T00:04:29;102702.69;;;1.24;100.00
19086;BME280;9675;51.538;6.728;2023-01-29T00:06:58;102702.34;;;1.21;100.00
19086;BME280;9675;51.538;6.728;2023-01-29T00:09:27;102702.34;;;1.21;100.00
19086;BME280;9675;51.538;6.728;2023-01-29T00:11:54;102702.94;;;1.19;100.00
19086;BME280;9675;51.538;6.728;2023-01-29T00:14:21;102703.47;;;1.16;100.00
19086;BME280;9675;51.538;6.728;2023-01-29T00:16:48;102707.44;;;1.14;100.00
19086;BME280;9675;51.538;6.728;2023-01-29T00:19:15;102698.75;;;1.12;100.00
19086;BME280;9675;51.538;6.728;2023-01-29T00:21:45;102698.56;;;1.11;100.00
19086;BME280;9675;51.538;6.728;2023-01-29T00:24:14;102690.78;;;1.09;100.00
19086;BME280;9675;51.538;6.728;2023-01-29T00:26:41;102690.44;;;1.06;100.00
19086;BME280;9675;51.538;6.728;2023-01-29T00:29:09;102686.09;;;1.05;100.00
19086;BME280;9675;51.538;6.728;2023-01-29T00:31:36;102684.13;;;1.03;100.00
19086;BME280;9675;51.538;6.728;2023-01-29T00:34:03;102682.09;;;1.00;100.00
19086;BME280;9675;51.538;6.728;2023-01-29T00:36:30;102680.28;;;0.99;100.00
19086;BME280;9675;51.538;6.728;2023-01-29T00:38:59;102677.41;;;0.96;100.00
19086;BME280;9675;51.538;6.728;2023-01-29T00:41:30;102684.13;;;0.96;100.00
19086;BME280;9675;51.538;6.728;2023-01-29T00:44:15;102683.94;;;0.94;100.00
19086;BME280;9675;51.538;6.728;2023-01-29T00:47:01;102690.47;;;0.92;100.00
19086;BME280;9675;51.538;6.728;2023-01-29T00:49:29;102683.59;;;0.91;100.00
19086;BME280;9675;51.538;6.728;2023-01-29T00:52:03;102689.38;;;0.90;100.00
19086;BME280;9675;51.538;6.728;2023-01-29T00:54:48;102686.50;;;0.87;100.00
19086;BME280;9675;51.538;6.728;2023-01-29T00:57:16;102686.31;;;0.85;100.00
19086;BME280;9675;51.538;6.728;2023-01-29T00:59:43;102698.06;;;0.85;100.00
19086;BME280;9675;51.538;6.728;2023-01-29T01:02:10;102687.75;;;0.83;100.00
19086;BME280;9675;51.538;6.728;2023-01-29T01:04:55;102680.69;;;0.81;100.00
19086;BME280;9675;51.538;6.728;2023-01-29T01:07:27;102684.50;;;0.77;100.00
19086;BME280;9675;51.538;6.728;2023-01-29T01:09:54;102683.59;;;0.77;100.00
19086;BME280;9675;51.538;6.728;2023-01-29T01:12:41;102668.00;;;0.74;100.00
19086;BME280;9675;51.538;6.728;2023-01-29T01:15:09;102668.00;;;0.74;100.00
19086;BME280;9675;51.538;6.728;2023-01-29T01:17:36;102659.34;;;0.72;100.00
19086;BME280;9675;51.538;6.728;2023-01-29T01:20:05;102649.53;;;0.68;100.00
19086;BME280;9675;51.538;6.728;2023-01-29T01:22:32;102654.78;;;0.62;100.00
19086;BME280;9675;51.538;6.728;2023-01-29T01:24:59;102636.53;;;0.58;100.00
19086;BME280;9675;51.538;6.728;2023-01-29T01:27:26;102644.50;;;0.54;100.00
19086;BME280;9675;51.538;6.728;2023-01-29T01:29:54;102642.69;;;0.53;100.00
19086;BME280;9675;51.538;6.728;2023-01-29T01:32:21;102644.50;;;0.54;100.00
19086;BME280;9675;51.538;6.728;2023-01-29T01:34:50;102644.88;;;0.50;100.00
19086;BME280;9675;51.538;6.728;2023-01-29T01:37:17;102648.84;;;0.48;100.00
19086;BME280;9675;51.538;6.728;2023-01-29T01:39:45;102644.13;;;0.43;100.00
19086;BME280;9675;51.538;6.728;2023-01-29T01:42:13;102640.16;;;0.38;100.00
19086;BME280;9675;51.538;6.728;2023-01-29T01:44:58;102650.09;;;0.37;100.00
19086;BME280;9675;51.538;6.728;2023-01-29T01:47:37;102657.53;;;0.35;100.00
19086;BME280;9675;51.538;6.728;2023-01-29T01:50:12;102651.38;;;0.33;100.00
19086;BME280;9675;51.538;6.728;2023-01-29T01:52:52;102659.69;;;0.32;100.00
19086;BME280;9675;51.538;6.728;2023-01-29T01:55:26;102659.69;;;0.32;100.00
19086;BME280;9675;51.538;6.728;2023-01-29T01:58:03;102652.09;;;0.32;100.00
19086;BME280;9675;51.538;6.728;2023-01-29T02:00:34;102660.97;;;0.36;100.00
19086;BME280;9675;51.538;6.728;2023-01-29T02:03:01;102658.25;;;0.34;100.00
19086;BME280;9675;51.538;6.728;2023-01-29T02:05:48;102662.41;;;0.34;100.00
19086;BME280;9675;51.538;6.728;2023-01-29T02:08:44;102658.63;;;0.30;100.00
19086;BME280;9675;51.538;6.728;2023-01-29T02:11:31;102662.59;;;0.28;100.00
19086;BME280;9675;51.538;6.728;2023-01-29T02:13:58;102656.97;;;0.24;100.00
19086;BME280;9675;51.538;6.728;2023-01-29T02:16:27;102656.78;;;0.22;100.00
19086;BME280;9675;51.538;6.728;2023-01-29T02:18:54;102660.44;;;0.24;100.00
19086;BME280;9675;51.538;6.728;2023-01-29T02:21:51;102673.44;;;0.27;100.00
19086;BME280;9675;51.538;6.728;2023-01-29T02:25:00;102665.69;;;0.26;100.00
19086;BME280;9675;51.538;6.728;2023-01-29T02:30:40;102664.22;;;0.28;100.00
19086;BME280;9675;51.538;6.728;2023-01-29T02:33:20;102675.44;;;0.30;100.00
19086;BME280;9675;51.538;6.728;2023-01-29T02:35:58;102661.69;;;0.28;100.00
19086;BME280;9675;51.538;6.728;2023-01-29T02:38:39;102654.28;;;0.29;100.00
19086;BME280;9675;51.538;6.728;2023-01-29T02:41:16;102669.47;;;0.29;100.00
19086;BME280;9675;51.538;6.728;2023-01-29T02:43:55;102649.56;;;0.25;100.00
19086;BME280;9675;51.538;6.728;2023-01-29T02:46:34;102655.88;;;0.22;100.00
19086;BME280;9675;51.538;6.728;2023-01-29T02:49:12;102656.44;;;0.19;100.00
19086;BME280;9675;51.538;6.728;2023-01-29T02:51:48;102661.31;;;0.18;100.00
19086;BME280;9675;51.538;6.728;2023-01-29T02:54:22;102667.09;;;0.17;100.00
19086;BME280;9675;51.538;6.728;2023-01-29T02:56:55;102662.59;;;0.14;100.00
19086;BME280;9675;51.538;6.728;2023-01-29T02:59:30;102653.53;;;0.09;100.00
19086;BME280;9675;51.538;6.728;2023-01-29T03:02:05;102666.00;;;0.08;100.00
19086;BME280;9675;51.538;6.728;2023-01-29T03:04:42;102663.13;;;0.05;100.00
19086;BME280;9675;51.538;6.728;2023-01-29T03:07:17;102667.97;;;0.03;100.00
19086;BME280;9675;51.538;6.728;2023-01-29T03:10:15;102659.28;;;0.01;100.00
19086;BME280;9675;51.538;6.728;2023-01-29T03:12:45;102665.09;;;0.00;100.00
19086;BME280;9675;51.538;6.728;2023-01-29T03:15:21;102665.81;;;-0.01;100.00
19086;BME280;9675;51.538;6.728;2023-01-29T03:17:58;102668.88;;;-0.04;100.00
19086;BME280;9675;51.538;6.728;2023-01-29T03:20:34;102664.50;;;-0.05;100.00
19086;BME280;9675;51.538;6.728;2023-01-29T03:23:10;102663.59;;;-0.05;100.00
19086;BME280;9675;51.538;6.728;2023-01-29T03:25:42;102663.25;;;-0.08;100.00
19086;BME280;9675;51.538;6.728;2023-01-29T03:28:29;102663.25;;;-0.08;100.00
19086;BME280;9675;51.538;6.728;2023-01-29T03:31:16;102666.50;;;-0.09;100.00
19086;BME280;9675;51.538;6.728;2023-01-29T03:34:09;102665.59;;;-0.10;100.00
19086;BME280;9675;51.538;6.728;2023-01-29T03:36:51;102661.09;;;-0.12;100.00
19086;BME280;9675;51.538;6.728;2023-01-29T03:39:22;102670.28;;;-0.13;100.00
19086;BME280;9675;51.538;6.728;2023-01-29T03:41:56;102667.75;;;-0.13;100.00
19086;BME280;9675;51.538;6.728;2023-01-29T03:44:34;102659.81;;;-0.16;100.00
19086;BME280;9675;51.538;6.728;2023-01-29T03:47:16;102660.34;;;-0.18;100.00
19086;BME280;9675;51.538;6.728;2023-01-29T03:49:56;102660.34;;;-0.18;100.00
19086;BME280;9675;51.538;6.728;2023-01-29T03:52:37;102658.53;;;-0.19;100.00
19086;BME280;9675;51.538;6.728;2023-01-29T03:55:15;102665.41;;;-0.18;100.00
19086;BME280;9675;51.538;6.728;2023-01-29T03:57:54;102664.50;;;-0.19;100.00
19086;BME280;9675;51.538;6.728;2023-01-29T04:00:28;102655.28;;;-0.18;100.00
19086;BME280;9675;51.538;6.728;2023-01-29T04:03:14;102646.56;;;-0.20;100.00
19086;BME280;9675;51.538;6.728;2023-01-29T04:05:50;102649.47;;;-0.24;100.00
19086;BME280;9675;51.538;6.728;2023-01-29T04:08:27;102642.78;;;-0.24;100.00
19086;BME280;9675;51.538;6.728;2023-01-29T04:11:02;102633.94;;;-0.27;100.00
19086;BME280;9675;51.538;6.728;2023-01-29T04:13:32;102625.97;;;-0.23;100.00
19086;BME280;9675;51.538;6.728;2023-01-29T04:16:03;102614.03;;;-0.24;100.00
19086;BME280;9675;51.538;6.728;2023-01-29T04:18:32;102613.69;;;-0.27;100.00
19086;BME280;9675;51.538;6.728;2023-01-29T04:21:00;102612.22;;;-0.25;100.00
19086;BME280;9675;51.538;6.728;2023-01-29T04:23:32;102611.16;;;-0.27;100.00
19086;BME280;9675;51.538;6.728;2023-01-29T04:29:20;102622.34;;;-0.25;100.00
19086;BME280;9675;51.538;6.728;2023-01-29T04:31:59;102625.25;;;-0.22;100.00
19086;BME280;9675;51.538;6.728;2023-01-29T04:34:43;102626.31;;;-0.20;100.00
19086;BME280;9675;51.538;6.728;2023-01-29T04:37:31;102638.66;;;-0.16;100.00
19086;BME280;9675;51.538;6.728;2023-01-29T04:40:09;102632.84;;;-0.15;100.00
19086;BME280;9675;51.538;6.728;2023-01-29T04:42:48;102620.19;;;-0.15;100.00
19086;BME280;9675;51.538;6.728;2023-01-29T04:45:26;102626.72;;;-0.17;100.00
19086;BME280;9675;51.538;6.728;2023-01-29T04:48:08;102619.84;;;-0.18;100.00
19086;BME280;9675;51.538;6.728;2023-01-29T04:50:45;102616.59;;;-0.17;100.00
19086;BME280;9675;51.538;6.728;2023-01-29T04:53:24;102604.66;;;-0.18;100.00
19086;BME280;9675;51.538;6.728;2023-01-29T04:55:58;102595.97;;;-0.20;100.00
19086;BME280;9675;51.538;6.728;2023-01-29T04:58:32;102591.81;;;-0.20;100.00
19086;BME280;9675;51.538;6.728;2023-01-29T05:01:06;102591.66;;;-0.21;100.00
19086;BME280;9675;51.538;6.728;2023-01-29T05:03:39;102595.25;;;-0.19;100.00
19086;BME280;9675;51.538;6.728;2023-01-29T05:06:09;102590.19;;;-0.19;100.00
19086;BME280;9675;51.538;6.728;2023-01-29T05:08:40;102584.97;;;-0.21;100.00
19086;BME280;9675;51.538;6.728;2023-01-29T05:11:08;102572.47;;;-0.26;100.00
19086;BME280;9675;51.538;6.728;2023-01-29T05:13:39;102571.00;;;-0.24;100.00
19086;BME280;9675;51.538;6.728;2023-01-29T05:16:15;102578.09;;;-0.22;100.00
19086;BME280;9675;51.538;6.728;2023-01-29T05:18:42;102580.78;;;-0.20;100.00
19086;BME280;9675;51.538;6.728;2023-01-29T05:21:09;102577.53;;;-0.19;100.00
19086;BME280;9675;51.538;6.728;2023-01-29T05:23:38;102564.16;;;-0.18;100.00
19086;BME280;9675;51.538;6.728;2023-01-29T05:26:24;102561.63;;;-0.18;100.00
19086;BME280;9675;51.538;6.728;2023-01-29T05:29:08;102555.47;;;-0.20;100.00
19086;BME280;9675;51.538;6.728;2023-01-29T05:31:36;102554.41;;;-0.22;100.00
19086;BME280;9675;51.538;6.728;2023-01-29T05:34:03;102550.75;;;-0.24;100.00
19086;BME280;9675;51.538;6.728;2023-01-29T05:36:30;102558.75;;;-0.21;100.00
19086;BME280;9675;51.538;6.728;2023-01-29T05:38:59;102561.28;;;-0.21;100.00
19086;BME280;9675;51.538;6.728;2023-01-29T05:41:26;102564.50;;;-0.22;100.00
19086;BME280;9675;51.538;6.728;2023-01-29T05:43:53;102571.91;;;-0.24;100.00
19086;BME280;9675;51.538;6.728;2023-01-29T05:46:20;102565.22;;;-0.23;100.00
19086;BME280;9675;51.538;6.728;2023-01-29T05:48:47;102568.88;;;-0.21;100.00
19086;BME280;9675;51.538;6.728;2023-01-29T05:51:14;102575.72;;;-0.20;100.00
19086;BME280;9675;51.538;6.728;2023-01-29T05:53:41;102579.00;;;-0.21;100.00
19086;BME280;9675;51.538;6.728;2023-01-29T05:56:09;102574.84;;;-0.21;100.00
19086;BME280;9675;51.538;6.728;2023-01-29T05:58:37;102582.97;;;-0.16;100.00
19086;BME280;9675;51.538;6.728;2023-01-29T06:01:09;102581.16;;;-0.17;100.00
19086;BME280;9675;51.538;6.728;2023-01-29T06:03:36;102588.94;;;-0.16;100.00
19086;BME280;9675;51.538;6.728;2023-01-29T06:06:04;102579.34;;;-0.18;100.00
19086;BME280;9675;51.538;6.728;2023-01-29T06:08:31;102587.66;;;-0.19;100.00
19086;BME280;9675;51.538;6.728;2023-01-29T06:10:58;102581.53;;;-0.21;100.00
19086;BME280;9675;51.538;6.728;2023-01-29T06:13:26;102582.59;;;-0.26;100.00
19086;BME280;9675;51.538;6.728;2023-01-29T06:15:53;102578.25;;;-0.27;100.00
19086;BME280;9675;51.538;6.728;2023-01-29T06:18:20;102578.59;;;-0.24;100.00
19086;BME280;9675;51.538;6.728;2023-01-29T06:20:47;102592.34;;;-0.22;100.00
19086;BME280;9675;51.538;6.728;2023-01-29T06:23:14;102588.72;;;-0.24;100.00
19086;BME280;9675;51.538;6.728;2023-01-29T06:25:41;102599.22;;;-0.21;100.00
19086;BME280;9675;51.538;6.728;2023-01-29T06:28:09;102612.06;;;-0.20;100.00
19086;BME280;9675;51.538;6.728;2023-01-29T06:30:37;102602.84;;;-0.19;100.00
19086;BME280;9675;51.538;6.728;2023-01-29T06:33:04;102607.53;;;-0.15;100.00
19086;BME280;9675;51.538;6.728;2023-01-29T06:35:31;102602.50;;;-0.08;100.00
19086;BME280;9675;51.538;6.728;2023-01-29T06:37:58;102583.34;;;-0.06;100.00
19086;BME280;9675;51.538;6.728;2023-01-29T06:40:25;102589.47;;;-0.04;100.00
19086;BME280;9675;51.538;6.728;2023-01-29T06:42:52;102577.00;;;-0.03;100.00
19086;BME280;9675;51.538;6.728;2023-01-29T06:45:19;102583.69;;;-0.03;100.00
19086;BME280;9675;51.538;6.728;2023-01-29T06:47:47;102589.13;;;-0.07;100.00
19086;BME280;9675;51.538;6.728;2023-01-29T06:50:15;102590.19;;;-0.12;100.00
19086;BME280;9675;51.538;6.728;2023-01-29T06:52:42;102599.63;;;-0.11;100.00
19086;BME280;9675;51.538;6.728;2023-01-29T06:55:09;102592.72;;;-0.12;100.00
19086;BME280;9675;51.538;6.728;2023-01-29T06:57:36;102588.75;;;-0.10;100.00
19086;BME280;9675;51.538;6.728;2023-01-29T07:00:04;102589.13;;;-0.07;100.00
19086;BME280;9675;51.538;6.728;2023-01-29T07:02:32;102577.53;;;-0.05;100.00
19086;BME280;9675;51.538;6.728;2023-01-29T07:05:00;102577.53;;;-0.05;100.00
19086;BME280;9675;51.538;6.728;2023-01-29T07:07:27;102582.78;;;-0.04;100.00
19086;BME280;9675;51.538;6.728;2023-01-29T07:09:54;102592.19;;;-0.03;100.00
19086;BME280;9675;51.538;6.728;2023-01-29T07:12:21;102590.56;;;-0.02;100.00
19086;BME280;9675;51.538;6.728;2023-01-29T07:14:48;102594.91;;;-0.01;100.00
19086;BME280;9675;51.538;6.728;2023-01-29T07:17:15;102592.19;;;-0.03;100.00
19086;BME280;9675;51.538;6.728;2023-01-29T07:19:42;102588.75;;;-0.03;100.00
19086;BME280;9675;51.538;6.728;2023-01-29T07:22:10;102586.22;;;-0.03;100.00
19086;BME280;9675;51.538;6.728;2023-01-29T07:24:37;102573.22;;;-0.06;100.00
19086;BME280;9675;51.538;6.728;2023-01-29T07:27:04;102573.94;;;-0.07;100.00
19086;BME280;9675;51.538;6.728;2023-01-29T07:29:31;102580.81;;;-0.06;100.00
19086;BME280;9675;51.538;6.728;2023-01-29T07:31:59;102587.66;;;-0.05;100.00
19086;BME280;9675;51.538;6.728;2023-01-29T07:34:26;102588.41;;;-0.06;100.00
19086;BME280;9675;51.538;6.728;2023-01-29T07:36:53;102586.59;;;-0.07;100.00
19086;BME280;9675;51.538;6.728;2023-01-29T07:39:22;102579.00;;;-0.07;100.00
19086;BME280;9675;51.538;6.728;2023-01-29T07:41:50;102575.75;;;-0.06;100.00
19086;BME280;9675;51.538;6.728;2023-01-29T07:44:17;102574.84;;;-0.07;100.00
19086;BME280;9675;51.538;6.728;2023-01-29T07:46:44;102565.63;;;-0.06;100.00
19086;BME280;9675;51.538;6.728;2023-01-29T07:49:11;102568.16;;;-0.06;100.00
19086;BME280;9675;51.538;6.728;2023-01-29T07:51:38;102571.94;;;-0.03;100.00
19086;BME280;9675;51.538;6.728;2023-01-29T07:54:08;102577.19;;;-0.01;100.00
19086;BME280;9675;51.538;6.728;2023-01-29T07:56:36;102573.19;;;0.01;100.00
19086;BME280;9675;51.538;6.728;2023-01-29T07:59:03;102557.28;;;0.02;100.00
19086;BME280;9675;51.538;6.728;2023-01-29T08:01:31;102571.56;;;0.02;100.00
19086;BME280;9675;51.538;6.728;2023-01-29T08:03:58;102572.50;;;0.02;100.00
19086;BME280;9675;51.538;6.728;2023-01-29T08:06:26;102573.19;;;0.01;100.00
19086;BME280;9675;51.538;6.728;2023-01-29T08:08:54;102585.16;;;0.02;100.00
19086;BME280;9675;51.538;6.728;2023-01-29T08:11:23;102579.03;;;0.00;100.00
19086;BME280;9675;51.538;6.728;2023-01-29T08:13:54;102584.63;;;0.05;100.00
19086;BME280;9675;51.538;6.728;2023-01-29T08:16:22;102579.91;;;0.08;100.00
19086;BME280;9675;51.538;6.728;2023-01-29T08:18:49;102578.47;;;0.10;100.00
19086;BME280;9675;51.538;6.728;2023-01-29T08:21:16;102561.28;;;0.07;100.00
19086;BME280;9675;51.538;6.728;2023-01-29T08:23:43;102544.09;;;0.05;100.00
19086;BME280;9675;51.538;6.728;2023-01-29T08:26:10;102547.72;;;0.07;100.00
19086;BME280;9675;51.538;6.728;2023-01-29T08:28:37;102541.72;;;0.06;100.00
19086;BME280;9675;51.538;6.728;2023-01-29T08:31:13;102538.47;;;0.07;100.00
19086;BME280;9675;51.538;6.728;2023-01-29T08:33:40;102548.63;;;0.07;100.00
19086;BME280;9675;51.538;6.728;2023-01-29T08:36:09;102554.06;;;0.10;100.00
19086;BME280;9675;51.538;6.728;2023-01-29T08:38:36;102556.94;;;0.13;100.00
19086;BME280;9675;51.538;6.728;2023-01-29T08:41:04;102552.22;;;0.16;100.00
19086;BME280;9675;51.538;6.728;2023-01-29T08:43:31;102550.44;;;0.15;100.00
19086;BME280;9675;51.538;6.728;2023-01-29T08:46:00;102549.34;;;0.13;100.00
19086;BME280;9675;51.538;6.728;2023-01-29T08:48:28;102542.47;;;0.12;100.00
19086;BME280;9675;51.538;6.728;2023-01-29T08:50:56;102546.28;;;0.09;100.00
19086;BME280;9675;51.538;6.728;2023-01-29T08:53:24;102530.50;;;0.11;100.00
19086;BME280;9675;51.538;6.728;2023-01-29T08:55:53;102530.50;;;0.11;100.00
19086;BME280;9675;51.538;6.728;2023-01-29T08:58:20;102533.81;;;0.10;100.00
19086;BME280;9675;51.538;6.728;2023-01-29T09:00:48;102538.13;;;0.11;100.00
19086;BME280;9675;51.538;6.728;2023-01-29T09:03:15;102527.97;;;0.11;100.00
19086;BME280;9675;51.538;6.728;2023-01-29T09:05:43;102533.25;;;0.13;100.00
19086;BME280;9675;51.538;6.728;2023-01-29T09:08:12;102528.16;;;0.13;100.00
19086;BME280;9675;51.538;6.728;2023-01-29T09:10:40;102526.34;;;0.12;100.00
19086;BME280;9675;51.538;6.728;2023-01-29T09:13:12;102514.78;;;0.14;100.00
19086;BME280;9675;51.538;6.728;2023-01-29T09:15:46;102524.94;;;0.14;100.00
19086;BME280;9675;51.538;6.728;2023-01-29T09:18:16;102523.44;;;0.16;100.00
19086;BME280;9675;51.538;6.728;2023-01-29T09:20:48;102516.94;;;0.18;100.00
19086;BME280;9675;51.538;6.728;2023-01-29T09:23:21;102529.81;;;0.19;100.00
19086;BME280;9675;51.538;6.728;2023-01-29T09:25:49;102507.72;;;0.18;100.00
19086;BME280;9675;51.538;6.728;2023-01-29T09:28:17;102508.44;;;0.17;100.00
19086;BME280;9675;51.538;6.728;2023-01-29T09:30:44;102503.38;;;0.17;100.00
19086;BME280;9675;51.538;6.728;2023-01-29T09:33:16;102506.63;;;0.16;100.00
19086;BME280;9675;51.538;6.728;2023-01-29T09:35:44;102505.91;;;0.17;100.00
19086;BME280;9675;51.538;6.728;2023-01-29T09:38:17;102508.81;;;0.20;100.00
19086;BME280;9675;51.538;6.728;2023-01-29T09:40:58;102502.28;;;0.22;100.00
19086;BME280;9675;51.538;6.728;2023-01-29T09:43:40;102493.63;;;0.20;100.00
19086;BME280;9675;51.538;6.728;2023-01-29T09:46:18;102492.53;;;0.18;100.00
19086;BME280;9675;51.538;6.728;2023-01-29T09:48:54;102496.16;;;0.20;100.00
19086;BME280;9675;51.538;6.728;2023-01-29T09:51:32;102494.50;;;0.21;100.00
19086;BME280;9675;51.538;6.728;2023-01-29T09:54:16;102497.03;;;0.21;100.00
19086;BME280;9675;51.538;6.728;2023-01-29T09:56:52;102500.66;;;0.23;100.00
19086;BME280;9675;51.538;6.728;2023-01-29T09:59:25;102502.47;;;0.24;100.00
19086;BME280;9675;51.538;6.728;2023-01-29T10:02:08;102509.50;;;0.26;100.00
19086;BME280;9675;51.538;6.728;2023-01-29T10:05:15;102508.78;;;0.27;100.00
19086;BME280;9675;51.538;6.728;2023-01-29T10:08:23;102503.56;;;0.26;100.00
19086;BME280;9675;51.538;6.728;2023-01-29T10:11:10;102503.34;;;0.31;100.00
19086;BME280;9675;51.538;6.728;2023-01-29T10:13:53;102500.81;;;0.31;100.00
19086;BME280;9675;51.538;6.728;2023-01-29T10:16:43;102501.19;;;0.34;100.00
19086;BME280;9675;51.538;6.728;2023-01-29T10:19:54;102499.72;;;0.36;100.00
19086;BME280;9675;51.538;6.728;2023-01-29T10:23:09;102501.53;;;0.37;100.00
19086;BME280;9675;51.538;6.728;2023-01-29T10:25:44;102501.16;;;0.41;100.00
19086;BME280;9675;51.538;6.728;2023-01-29T10:28:22;102500.81;;;0.46;100.00
19086;BME280;9675;51.538;6.728;2023-01-29T10:30:59;102495.19;;;0.48;100.00
19086;BME280;9675;51.538;6.728;2023-01-29T10:33:40;102498.63;;;0.49;100.00
19086;BME280;9675;51.538;6.728;2023-01-29T10:36:17;102495.19;;;0.48;100.00
19086;BME280;9675;51.538;6.728;2023-01-29T10:38:48;102474.00;;;0.48;100.00
19086;BME280;9675;51.538;6.728;2023-01-29T10:41:47;102477.63;;;0.50;100.00
19086;BME280;9675;51.538;6.728;2023-01-29T10:44:42;102478.53;;;0.50;100.00
19086;BME280;9675;51.538;6.728;2023-01-29T10:48:01;102469.31;;;0.51;100.00
19086;BME280;9675;51.538;6.728;2023-01-29T10:50:46;102461.84;;;0.52;100.00
19086;BME280;9675;51.538;6.728;2023-01-29T10:53:35;102460.06;;;0.51;100.00
19086;BME280;9675;51.538;6.728;2023-01-29T10:56:20;102455.91;;;0.52;100.00
19086;BME280;9675;51.538;6.728;2023-01-29T10:58:56;102464.94;;;0.57;100.00
19086;BME280;9675;51.538;6.728;2023-01-29T11:01:26;102454.81;;;0.57;100.00
19086;BME280;9675;51.538;6.728;2023-01-29T11:04:00;102451.19;;;0.55;100.00
19086;BME280;9675;51.538;6.728;2023-01-29T11:06:30;102451.91;;;0.61;100.00
19086;BME280;9675;51.538;6.728;2023-01-29T11:09:08;102444.44;;;0.62;100.00
19086;BME280;9675;51.538;6.728;2023-01-29T11:11:46;102443.19;;;0.66;100.00
19086;BME280;9675;51.538;6.728;2023-01-29T11:14:25;102423.63;;;0.65;100.00
19086;BME280;9675;51.538;6.728;2023-01-29T11:16:55;102430.50;;;0.66;100.00
19086;BME280;9675;51.538;6.728;2023-01-29T11:19:37;102418.88;;;0.68;100.00
19086;BME280;9675;51.538;6.728;2023-01-29T11:22:12;102421.44;;;0.68;100.00
19086;BME280;9675;51.538;6.728;2023-01-29T11:24:40;102415.63;;;0.69;100.00
19086;BME280;9675;51.538;6.728;2023-01-29T11:27:19;102412.38;;;0.70;100.00
19086;BME280;9675;51.538;6.728;2023-01-29T11:29:52;102415.09;;;0.71;100.00
19086;BME280;9675;51.538;6.728;2023-01-29T11:32:32;102406.78;;;0.72;100.00
19086;BME280;9675;51.538;6.728;2023-01-29T11:35:04;102406.00;;;0.73;100.00
19086;BME280;9675;51.538;6.728;2023-01-29T11:37:36;102407.09;;;0.75;100.00
19086;BME280;9675;51.538;6.728;2023-01-29T11:40:32;102396.06;;;0.75;100.00
19086;BME280;9675;51.538;6.728;2023-01-29T11:43:26;102401.47;;;0.78;100.00
19086;BME280;9675;51.538;6.728;2023-01-29T11:45:57;102396.94;;;0.82;100.00
19086;BME280;9675;51.538;6.728;2023-01-29T11:48:38;102397.09;;;0.84;100.00
19086;BME280;9675;51.538;6.728;2023-01-29T11:51:09;102382.25;;;0.87;100.00
19086;BME280;9675;51.538;6.728;2023-01-29T11:53:41;102380.75;;;0.89;100.00
19086;BME280;9675;51.538;6.728;2023-01-29T11:56:21;102368.25;;;0.91;100.00
19086;BME280;9675;51.538;6.728;2023-01-29T11:58:50;102359.03;;;0.91;100.00
19086;BME280;9675;51.538;6.728;2023-01-29T12:01:31;102364.09;;;0.91;100.00
19086;BME280;9675;51.538;6.728;2023-01-29T12:04:01;102351.59;;;0.93;100.00
19086;BME280;9675;51.538;6.728;2023-01-29T12:06:34;102347.44;;;0.93;100.00
19086;BME280;9675;51.538;6.728;2023-01-29T12:09:15;102338.53;;;0.97;100.00
19086;BME280;9675;51.538;6.728;2023-01-29T12:11:44;102322.72;;;0.99;100.00
19086;BME280;9675;51.538;6.728;2023-01-29T12:14:27;102323.63;;;1.00;100.00
19086;BME280;9675;51.538;6.728;2023-01-29T12:17:00;102307.88;;;1.02;100.00
19086;BME280;9675;51.538;6.728;2023-01-29T12:19:38;102302.06;;;1.03;100.00
19086;BME280;9675;51.538;6.728;2023-01-29T12:22:15;102281.19;;;1.06;100.00
19086;BME280;9675;51.538;6.728;2023-01-29T12:24:51;102287.91;;;1.05;100.00
19086;BME280;9675;51.538;6.728;2023-01-29T12:27:25;102278.66;;;1.06;100.00
19086;BME280;9675;51.538;6.728;2023-01-29T12:30:03;102284.25;;;1.10;100.00
19086;BME280;9675;51.538;6.728;2023-01-29T12:32:44;102278.75;;;1.14;100.00
19086;BME280;9675;51.538;6.728;2023-01-29T12:35:21;102270.44;;;1.15;100.00
19086;BME280;9675;51.538;6.728;2023-01-29T12:37:58;102268.25;;;1.18;100.00
19086;BME280;9675;51.538;6.728;2023-01-29T12:40:32;102258.09;;;1.18;100.00
19086;BME280;9675;51.538;6.728;2023-01-29T12:43:12;102250.13;;;1.15;100.00
19086;BME280;9675;51.538;6.728;2023-01-29T12:45:44;102254.78;;;1.19;100.00
19086;BME280;9675;51.538;6.728;2023-01-29T12:48:19;102245.72;;;1.21;100.00
19086;BME280;9675;51.538;6.728;2023-01-29T12:50:54;102245.91;;;1.23;100.00
19086;BME280;9675;51.538;6.728;2023-01-29T12:53:31;102243.69;;;1.26;100.00
19086;BME280;9675;51.538;6.728;2023-01-29T12:56:08;102241.31;;;1.27;100.00
19086;BME280;9675;51.538;6.728;2023-01-29T12:58:42;102245.09;;;1.31;100.00
19086;BME280;9675;51.538;6.728;2023-01-29T13:01:18;102237.66;;;1.33;100.00
19086;BME280;9675;51.538;6.728;2023-01-29T13:03:53;102228.59;;;1.35;100.00
19086;BME280;9675;51.538;6.728;2023-01-29T13:06:29;102232.16;;;1.37;100.00
19086;BME280;9675;51.538;6.728;2023-01-29T13:09:02;102230.72;;;1.39;100.00
19086;BME280;9675;51.538;6.728;2023-01-29T13:11:39;102230.13;;;1.41;100.00
19086;BME280;9675;51.538;6.728;2023-01-29T13:14:13;102231.38;;;1.45;100.00
19086;BME280;9675;51.538;6.728;2023-01-29T13:16:50;102226.28;;;1.45;100.00
19086;BME280;9675;51.538;6.728;2023-01-29T13:19:25;102220.63;;;1.47;100.00
19086;BME280;9675;51.538;6.728;2023-01-29T13:21:59;102220.81;;;1.49;100.00
19086;BME280;9675;51.538;6.728;2023-01-29T13:24:37;102213.50;;;1.52;100.00
19086;BME280;9675;51.538;6.728;2023-01-29T13:27:06;102212.03;;;1.54;100.00
19086;BME280;9675;51.538;6.728;2023-01-29T13:29:33;102218.94;;;1.55;100.00
19086;BME280;9675;51.538;6.728;2023-01-29T13:32:03;102212.34;;;1.57;100.00
19086;BME280;9675;51.538;6.728;2023-01-29T13:34:34;102213.44;;;1.59;100.00
19086;BME280;9675;51.538;6.728;2023-01-29T13:37:15;102204.00;;;1.58;100.00
19086;BME280;9675;51.538;6.728;2023-01-29T13:39:48;102208.53;;;1.60;100.00